Historyczne dane pomiarowe

Dodano dane terminowe – wersja testowa.

Dane z okresu 1951-2019

Wersja bazy: 1.34 [2019-03-16, lista zmian], aktualizacja planowana na 2019-04-15

Dane meteo z obszaru Polski uzyskane na podstawie danych udostępnionych przez Instytut Meteorologii i Gospodarki Wodnej – Państwowy Instytut Badawczy.

 

Wybierz Datę:    

       

TemperaturaWilgotnośćWiatrCiśnienieOpadyŚniegCzas trwania zjawisk
 Stacja t tx tn tng RH VA  wxwx mslp ppp RRR   cm mm wxwxwxwxwxwxwx
2001-01-14 -2.1 -0.9 -3.8 -7.2 93.0- 8.0 0.0---- 0.1------------
2001-01-15 -2.0 -0.9 -3.0 -3.2 90.0- 8.0 0.3---- 0.0------------
2001-01-16 -3.9 -1.2 -6.0 -6.0 92.3- 8.0 2.3---- 0.0------------
2001-01-17 -3.2 -0.9 -6.2 -6.8 90.0- 7.7 3.0---- 0.0------------
2001-01-18 -2.4 1.2 -4.3 -5.7 90.5- 3.7 1.0---- 0.0------------
2001-01-19 -3.9 0.9 -6.8 -7.9 90.8- 2.3 1.7---- 0.0------------
2001-01-20 -3.8 1.7 -7.7-11.1 88.0- 6.7 0.0---- 0.0------------
2001-01-21 -2.0 1.7 -3.7 -6.0 91.0- 4.0 0.3---- 0.0------------
2001-01-22 -3.2 -0.2 -5.2 -7.2 93.5- 7.7 6.3---- 1.9------------
2001-01-23 -0.1 2.9 -2.6 -3.6 81.8- 7.7 2.7---- 0.0-- 2---------
2001-01-24 2.7 5.4 -1.0 -6.7 81.8- 6.0 7.3---- 5.3------------
2001-01-25 3.4 8.9 1.0 -2.6 83.8- 3.7 0.3---- 0.0------------
2001-01-26 3.4 6.6 1.2 -0.2 81.8- 8.0 0.0---- 0.0------------
2001-01-27 1.1 5.4 -3.6 -7.3 81.0- 7.3 1.3---- 0.0------------
2001-01-28 2.1 7.5 -0.6 -4.1 67.8- 1.0 0.7---- 0.0------------
2001-01-29 0.2 4.7 -3.0 -7.3 85.0- 7.0 0.3---- 0.0------------
2001-01-30 0.3 2.4 -1.0 -5.2 87.0- 7.7 0.7---- 0.1------------
2001-01-31 -0.4 0.6 -0.9 -1.7 94.0- 8.0 1.7---- 0.4------------
2001-02-01 -2.6 -0.1 -4.8 -6.8 89.5- 6.7 1.3---- 4.4------------
2001-02-02 -3.9 -0.4 -7.1-12.9 88.8- 8.0 3.3---- 1.1-- 5---------
2001-02-03 -8.2 -4.5-14.2-22.5 83.0- 7.3 0.3---- 2.3-- 5---------
2001-02-04 -4.5 -2.6 -6.7 -8.2 90.3- 8.0 0.7---- 3.0-- 8---------
2001-02-05 3.6 8.3 -4.0 -4.9 80.3- 7.3 1.7---- 0.7-- 8---------
2001-02-06 7.7 11.4 4.7 0.9 75.0- 6.3 2.3---- 0.2------------
2001-02-07 7.1 12.7 3.3 -2.1 81.8- 7.3 0.0---- 0.0------------
2001-02-08 7.7 13.4 2.6 -1.5 75.5- 5.3 1.3---- 0.0------------
2001-02-09 5.4 13.3 0.1 -2.7 80.0- 5.7 0.7---- 0.0------------
2001-02-10 3.5 7.9 1.5 1.3 91.5- 8.0 1.3---- 0.0------------
2001-02-11 0.6 7.7 -4.0 -8.3 84.8- 0.3 0.3---- 0.0------------
2001-02-12 5.6 16.4 -1.1 -4.1 75.0- 5.0 0.0---- 1.2------------
234.3 ms

 

Źródłem pochodzenia danych jest Instytut Meteorologii i Gospodarki Wodnej – Państwowy Instytut Badawczy. Dane Instytutu Meteorologii i Gospodarki Wodnej – Państwowego Instytutu Badawczego zostały przetworzone.

Dane źródłowe można odnaleźć na stronie https://dane.imgw.pl